Time;durP1;ratioP1;P1;durP2;ratioP2;P2;SDS_P1;SDS_P2;PMS_P1;PMS_P2;Temp;Humidity;BMP_temperature;BMP_pressure;BME280_temperature;BME280_humidity;BME280_pressure;Samples;Min_cycle;Max_cycle;Signal;HPM_P1;HPM_P2
2022/05/03 00:02:25;;;;;;;11.15;7.88;;;11.70;62.10;;;;;;5072498;28;20226;-86
2022/05/03 00:04:50;;;;;;;14.93;9.02;;;11.70;62.20;;;;;;5060402;28;20775;-85
2022/05/03 00:07:55;;;;;;;11.53;7.77;;;11.60;62.60;;;;;;5055084;28;20189;-82
2022/05/03 00:11:00;;;;;;;12.05;7.57;;;11.60;62.70;;;;;;5056179;28;20196;-82
2022/05/03 00:13:35;;;;;;;9.77;6.82;;;11.60;62.20;;;;;;5056210;28;20203;-82
2022/05/03 00:16:02;;;;;;;9.70;8.07;;;11.60;62.40;;;;;;5075486;28;20204;-82
2022/05/03 00:18:28;;;;;;;11.17;8.40;;;11.60;62.40;;;;;;5057628;28;20176;-82
2022/05/03 00:20:55;;;;;;;10.03;8.17;;;11.60;62.10;;;;;;5060432;28;20485;-82
2022/05/03 00:23:22;;;;;;;8.88;7.65;;;11.60;62.00;;;;;;5063600;28;20173;-83
2022/05/03 00:25:50;;;;;;;10.35;8.80;;;11.50;62.60;;;;;;5073004;28;20194;-87
2022/05/03 00:28:18;;;;;;;11.15;8.90;;;11.40;63.00;;;;;;5085941;28;20179;-82
2022/05/03 00:30:44;;;;;;;9.93;8.70;;;11.40;63.00;;;;;;5074836;28;20386;-82
2022/05/03 00:33:10;;;;;;;9.98;8.43;;;11.30;63.20;;;;;;5058550;28;20228;-82
2022/05/03 00:35:37;;;;;;;9.07;7.88;;;11.30;63.40;;;;;;5058040;28;20176;-83
2022/05/03 00:38:03;;;;;;;12.77;7.82;;;11.20;63.40;;;;;;5076401;28;20243;-83
2022/05/03 00:40:33;;;;;;;11.17;8.53;;;11.30;63.50;;;;;;5058911;28;20691;-84
2022/05/03 00:43:07;;;;;;;13.20;9.20;;;11.20;63.50;;;;;;5077577;28;20415;-82
2022/05/03 00:45:56;;;;;;;10.68;8.50;;;11.20;63.70;;;;;;5079603;28;20168;-83
2022/05/03 00:48:25;;;;;;;8.77;7.60;;;11.20;63.60;;;;;;5061886;28;20177;-83
2022/05/03 00:50:59;;;;;;;8.43;7.60;;;11.10;63.80;;;;;;5074984;28;20197;-83
2022/05/03 00:53:38;;;;;;;8.60;7.57;;;11.10;63.70;;;;;;5057315;28;20234;-84
2022/05/03 00:56:42;;;;;;;11.90;7.55;;;11.10;63.90;;;;;;5057822;28;20168;-84
2022/05/03 00:59:45;;;;;;;7.75;6.95;;;11.10;63.80;;;;;;5027320;28;20176;-83
2022/05/03 01:02:14;;;;;;;10.35;7.90;;;11.20;63.50;;;;;;5046631;28;20208;-84
2022/05/03 01:05:32;;;;;;;9.45;8.02;;;11.10;63.70;;;;;;5064416;28;20176;-83
2022/05/03 01:08:05;;;;;;;10.57;7.53;;;11.00;64.20;;;;;;5005651;28;20194;-83
2022/05/03 01:10:49;;;;;;;9.98;8.23;;;11.00;64.20;;;;;;5074544;28;20712;-83
2022/05/03 01:13:30;;;;;;;11.43;9.13;;;11.00;64.60;;;;;;5073575;28;20212;-83
2022/05/03 01:16:26;;;;;;;9.80;8.10;;;11.00;64.40;;;;;;5039748;28;20185;-84
2022/05/03 01:19:44;;;;;;;10.52;7.28;;;10.90;64.40;;;;;;5048900;28;20568;-83
2022/05/03 01:22:31;;;;;;;10.35;8.43;;;10.90;64.70;;;;;;5043703;28;20209;-84
2022/05/03 01:25:11;;;;;;;11.68;7.90;;;10.90;64.80;;;;;;5059513;28;20242;-83
2022/05/03 01:27:48;;;;;;;10.95;8.38;;;10.80;64.90;;;;;;5062312;28;20176;-84
2022/05/03 01:30:15;;;;;;;10.60;8.23;;;10.80;64.90;;;;;;5060684;28;20232;-84
2022/05/03 01:32:43;;;;;;;9.90;8.00;;;10.80;65.00;;;;;;5056383;28;20208;-84
2022/05/03 01:35:13;;;;;;;14.73;7.80;;;10.80;64.80;;;;;;5056476;28;20211;-83
2022/05/03 01:38:03;;;;;;;11.95;9.32;;;10.80;64.60;;;;;;5056778;28;20176;-83
2022/05/03 01:41:07;;;;;;;13.25;8.40;;;10.90;64.50;;;;;;5057055;28;20287;-85
2022/05/03 01:43:38;;;;;;;12.10;8.55;;;10.80;64.90;;;;;;5054915;28;20187;-85
2022/05/03 01:46:06;;;;;;;15.75;9.10;;;10.70;65.40;;;;;;5058794;28;20188;-83
2022/05/03 01:52:05;;;;;;;14.88;9.98;;;10.70;65.60;;;;;;5073615;28;20226;-83
2022/05/03 01:54:54;;;;;;;12.85;10.27;;;10.60;65.90;;;;;;5080510;28;20260;-83
2022/05/03 01:57:28;;;;;;;11.45;9.30;;;10.60;66.10;;;;;;5026847;28;20211;-83
2022/05/03 02:00:09;;;;;;;16.80;9.80;;;10.60;66.10;;;;;;5051671;28;20186;-83
2022/05/03 02:02:59;;;;;;;10.52;8.63;;;10.60;66.00;;;;;;5069181;28;20703;-83
2022/05/03 02:05:58;;;;;;;14.07;10.40;;;10.70;66.10;;;;;;5077639;28;20693;-84
2022/05/03 02:08:30;;;;;;;15.15;10.30;;;10.60;66.00;;;;;;5056006;28;20180;-83
2022/05/03 02:11:20;;;;;;;13.40;10.50;;;10.50;66.30;;;;;;5073839;28;20188;-83
2022/05/03 02:16:48;;;;;;;15.43;9.63;;;10.50;66.70;;;;;;5068538;28;20179;-83
2022/05/03 02:19:16;;;;;;;12.77;9.85;;;10.50;66.70;;;;;;5056766;28;20575;-84
2022/05/03 02:22:02;;;;;;;13.68;10.93;;;10.40;66.60;;;;;;5057647;28;20207;-83
2022/05/03 02:24:32;;;;;;;13.98;10.88;;;10.50;66.80;;;;;;5047601;28;20207;-82
2022/05/03 02:27:10;;;;;;;15.00;10.10;;;10.40;66.80;;;;;;5080545;28;20169;-83
2022/05/03 02:29:50;;;;;;;14.20;11.05;;;10.40;66.80;;;;;;5067319;28;20188;-84
2022/05/03 02:32:37;;;;;;;14.75;10.90;;;10.30;67.00;;;;;;5064264;28;20200;-84
2022/05/03 02:35:09;;;;;;;13.98;10.88;;;10.30;67.10;;;;;;5068081;28;20449;-83
2022/05/03 02:37:48;;;;;;;14.75;10.63;;;10.40;66.90;;;;;;5071894;28;20165;-86
2022/05/03 02:40:18;;;;;;;16.02;11.02;;;10.40;67.00;;;;;;5059723;28;20188;-83
2022/05/03 02:42:45;;;;;;;14.65;11.65;;;10.30;67.20;;;;;;5071860;28;20181;-83
2022/05/03 02:45:13;;;;;;;12.93;10.02;;;10.20;67.30;;;;;;5073634;28;20187;-84
2022/05/03 02:48:07;;;;;;;18.38;11.57;;;10.30;67.20;;;;;;5058689;28;20186;-86
2022/05/03 02:50:42;;;;;;;13.68;10.40;;;10.30;67.50;;;;;;5057285;28;20193;-84
2022/05/03 02:53:09;;;;;;;15.02;11.30;;;10.30;67.50;;;;;;5064756;28;20195;-83
2022/05/03 02:55:58;;;;;;;13.23;10.02;;;10.20;67.40;;;;;;5068796;28;20254;-83
2022/05/03 02:58:41;;;;;;;14.20;11.00;;;10.20;67.70;;;;;;5076669;28;20642;-83
2022/05/03 03:04:27;;;;;;;15.48;10.80;;;10.20;67.70;;;;;;5076193;28;20167;-84
2022/05/03 03:06:55;;;;;;;15.15;11.02;;;10.10;67.70;;;;;;5034056;28;20231;-84
2022/05/03 03:09:41;;;;;;;13.38;11.30;;;10.10;67.90;;;;;;5048149;28;20599;-83
2022/05/03 03:12:28;;;;;;;17.25;11.20;;;10.10;68.00;;;;;;5065572;28;20200;-82
2022/05/03 03:15:16;;;;;;;14.90;10.38;;;10.10;68.20;;;;;;5055048;28;20598;-85
2022/05/03 03:17:44;;;;;;;15.75;11.63;;;10.10;69.10;;;;;;5071278;28;20171;-84
2022/05/03 03:20:11;;;;;;;16.95;11.43;;;10.00;68.50;;;;;;5055413;28;20169;-83
2022/05/03 03:22:43;;;;;;;15.30;11.43;;;10.00;68.60;;;;;;5058782;28;20267;-84
2022/05/03 03:25:14;;;;;;;17.05;12.13;;;10.10;68.50;;;;;;5057970;28;20204;-83
2022/05/03 03:27:42;;;;;;;15.07;11.05;;;10.10;68.60;;;;;;5059227;28;20177;-83
2022/05/03 03:30:10;;;;;;;15.75;11.52;;;10.10;68.60;;;;;;5075440;28;20239;-85
2022/05/03 03:32:50;;;;;;;12.93;10.40;;;10.00;68.80;;;;;;5053382;28;20219;-85
2022/05/03 03:35:17;;;;;;;17.05;12.57;;;10.00;69.10;;;;;;5059634;28;20164;-84
2022/05/03 03:37:45;;;;;;;18.90;12.95;;;10.00;69.30;;;;;;5059846;28;20176;-83
2022/05/03 03:40:13;;;;;;;19.13;13.05;;;10.00;69.50;;;;;;5061060;28;20180;-83
2022/05/03 03:42:40;;;;;;;17.23;12.95;;;10.00;69.60;;;;;;5067790;28;20196;-84
2022/05/03 03:45:08;;;;;;;15.07;12.70;;;10.00;69.60;;;;;;5075729;28;20172;-83
2022/05/03 03:47:35;;;;;;;19.75;13.35;;;10.00;69.80;;;;;;5049322;28;20184;-83
2022/05/03 03:50:02;;;;;;;18.98;13.45;;;10.00;69.50;;;;;;5052825;28;20215;-84
2022/05/03 03:52:28;;;;;;;18.95;11.60;;;10.00;69.60;;;;;;5071107;28;20279;-83
2022/05/03 03:54:57;;;;;;;15.55;12.00;;;9.90;69.40;;;;;;5076155;28;20183;-82
2022/05/03 03:57:24;;;;;;;18.30;11.52;;;10.00;69.60;;;;;;5058603;28;20164;-84
2022/05/03 03:59:51;;;;;;;21.08;13.15;;;10.00;69.40;;;;;;5056308;28;20180;-84
2022/05/03 04:02:17;;;;;;;16.95;12.27;;;10.00;69.80;;;;;;5058480;28;20224;-83
2022/05/03 04:04:44;;;;;;;17.55;12.15;;;10.00;69.50;;;;;;5057076;28;20197;-83
2022/05/03 04:07:11;;;;;;;17.83;11.88;;;10.00;69.40;;;;;;5057596;28;20261;-83
2022/05/03 04:09:36;;;;;;;18.20;12.45;;;9.90;69.70;;;;;;5056848;28;20180;-83
2022/05/03 04:12:04;;;;;;;17.40;11.53;;;9.90;69.40;;;;;;5052840;28;20291;-84
2022/05/03 04:14:31;;;;;;;17.38;12.80;;;9.90;69.20;;;;;;5075141;28;20407;-84
2022/05/03 04:16:59;;;;;;;15.93;13.00;;;10.00;69.20;;;;;;5057826;28;20607;-83
2022/05/03 04:19:25;;;;;;;22.83;14.40;;;9.90;69.40;;;;;;5040244;28;20179;-83
2022/05/03 04:21:51;;;;;;;22.67;14.18;;;9.90;69.40;;;;;;5069362;28;20220;-83
2022/05/03 04:24:17;;;;;;;21.23;14.07;;;10.00;69.50;;;;;;5055084;28;20242;-83
2022/05/03 04:26:43;;;;;;;19.08;13.07;;;10.00;69.30;;;;;;5075173;28;20186;-83
2022/05/03 04:29:09;;;;;;;16.93;13.93;;;9.90;69.30;;;;;;5056935;28;20255;-83
2022/05/03 04:31:36;;;;;;;22.17;14.85;;;10.00;69.10;;;;;;5057336;28;20442;-83
2022/05/03 04:34:04;;;;;;;17.60;12.65;;;10.00;69.20;;;;;;5057731;28;20200;-84
2022/05/03 04:36:32;;;;;;;18.83;12.93;;;10.00;69.40;;;;;;5057786;28;20188;-83
2022/05/03 04:38:59;;;;;;;23.35;13.90;;;9.90;69.30;;;;;;5077018;28;20171;-82
2022/05/03 04:41:25;;;;;;;19.75;12.10;;;9.90;69.30;;;;;;5061594;28;20199;-83
2022/05/03 04:43:51;;;;;;;16.63;12.80;;;9.90;69.00;;;;;;5085670;28;20176;-86
2022/05/03 04:46:18;;;;;;;16.40;12.20;;;10.00;68.70;;;;;;5101915;28;20172;-83
2022/05/03 04:48:44;;;;;;;19.15;13.52;;;10.10;68.40;;;;;;5088358;28;20259;-83
2022/05/03 04:51:20;;;;;;;20.80;12.00;;;10.10;68.20;;;;;;5076357;28;20741;-83
2022/05/03 04:53:47;;;;;;;17.10;11.65;;;10.10;68.00;;;;;;5061111;28;20223;-83
2022/05/03 04:56:32;;;;;;;18.17;12.63;;;10.20;67.10;;;;;;5077304;28;20176;-83
2022/05/03 04:58:58;;;;;;;17.80;11.88;;;10.20;67.30;;;;;;5066902;28;20616;-84
2022/05/03 05:01:24;;;;;;;18.35;12.60;;;10.10;67.70;;;;;;5061380;28;20204;-83
2022/05/03 05:03:50;;;;;;;18.25;12.23;;;10.20;67.50;;;;;;5075662;28;20236;-84
2022/05/03 05:06:16;;;;;;;27.00;15.00;;;10.20;67.60;;;;;;5065100;28;20184;-83
2022/05/03 05:08:43;;;;;;;19.20;13.55;;;10.10;67.90;;;;;;5055662;28;20188;-82
2022/05/03 05:11:11;;;;;;;20.08;14.38;;;10.20;68.00;;;;;;5052743;28;20201;-82
2022/05/03 05:13:37;;;;;;;20.63;14.52;;;10.30;67.90;;;;;;5075282;28;20676;-83
2022/05/03 05:16:05;;;;;;;19.92;14.18;;;10.20;68.10;;;;;;5075009;28;20226;-83
2022/05/03 05:18:31;;;;;;;25.10;14.73;;;10.30;68.50;;;;;;5055846;28;20168;-84
2022/05/03 05:20:57;;;;;;;23.27;14.00;;;10.30;68.60;;;;;;5055729;28;20235;-84
2022/05/03 05:23:22;;;;;;;17.75;13.13;;;10.40;68.60;;;;;;5056168;28;20548;-84
2022/05/03 05:25:49;;;;;;;18.07;12.00;;;10.40;68.60;;;;;;5054739;28;20188;-84
2022/05/03 05:28:16;;;;;;;16.92;11.70;;;10.50;68.00;;;;;;5076427;28;20622;-82
2022/05/03 05:30:43;;;;;;;20.52;13.40;;;10.80;67.20;;;;;;5057863;28;20204;-81
2022/05/03 05:33:09;;;;;;;25.20;12.88;;;11.00;67.30;;;;;;5063978;28;20211;-83
2022/05/03 05:35:35;;;;;;;19.90;15.10;;;11.60;65.70;;;;;;5063680;28;20183;-83
2022/05/03 05:38:19;;;;;;;18.67;12.97;;;12.30;63.70;;;;;;5060592;28;20180;-83
2022/05/03 05:40:49;;;;;;;21.83;13.60;;;12.90;61.20;;;;;;5075216;28;20439;-82
2022/05/03 05:43:15;;;;;;;20.80;14.30;;;13.30;59.40;;;;;;5059346;28;20189;-83
2022/05/03 05:45:42;;;;;;;23.90;15.25;;;13.60;58.60;;;;;;5057242;28;20290;-84
2022/05/03 05:48:08;;;;;;;24.85;13.90;;;13.90;57.70;;;;;;5060065;28;20291;-83
2022/05/03 05:50:35;;;;;;;22.95;15.68;;;14.50;55.50;;;;;;5074181;28;20287;-82
2022/05/03 05:55:45;;;;;;;20.30;15.13;;;14.80;54.50;;;;;;5079074;28;20683;-83
2022/05/03 05:58:11;;;;;;;23.03;14.03;;;14.90;53.60;;;;;;5084880;28;20216;-82
2022/05/03 06:00:37;;;;;;;24.30;16.97;;;15.10;52.90;;;;;;5068277;28;20725;-83
2022/05/03 06:03:04;;;;;;;20.83;15.05;;;15.20;52.10;;;;;;5065823;28;20318;-82
2022/05/03 06:05:31;;;;;;;19.45;15.07;;;15.10;51.30;;;;;;5043662;28;20189;-84
2022/05/03 06:07:56;;;;;;;21.17;15.57;;;15.00;51.90;;;;;;5078911;28;20280;-83
2022/05/03 06:10:23;;;;;;;24.00;15.60;;;14.90;52.20;;;;;;5055873;28;20652;-83
2022/05/03 06:12:49;;;;;;;21.70;14.82;;;14.90;53.00;;;;;;5061836;28;20211;-83
2022/05/03 06:15:16;;;;;;;22.57;15.77;;;14.90;52.50;;;;;;5062684;28;20176;-83
2022/05/03 06:18:01;;;;;;;20.27;15.45;;;14.70;52.50;;;;;;5078756;28;20418;-83
2022/05/03 06:20:27;;;;;;;20.83;13.85;;;14.50;52.50;;;;;;5062194;28;20684;-83
2022/05/03 06:22:53;;;;;;;21.58;15.00;;;14.60;51.40;;;;;;5078802;28;20256;-84
2022/05/03 06:25:19;;;;;;;16.73;13.80;;;14.60;52.30;;;;;;5069757;28;20250;-84
2022/05/03 06:27:45;;;;;;;19.40;14.90;;;14.80;52.00;;;;;;5063566;28;20181;-85
2022/05/03 06:30:11;;;;;;;21.87;16.10;;;14.60;52.10;;;;;;5061856;28;20422;-84
2022/05/03 06:32:37;;;;;;;17.95;14.30;;;14.70;51.00;;;;;;5079488;28;20200;-84
2022/05/03 06:35:04;;;;;;;18.05;13.10;;;14.80;49.70;;;;;;5061737;28;20180;-83
2022/05/03 06:37:29;;;;;;;18.50;13.38;;;14.80;49.10;;;;;;5080679;28;20179;-84
2022/05/03 06:39:55;;;;;;;21.20;14.50;;;14.70;50.20;;;;;;5062785;28;20248;-85
2022/05/03 06:42:21;;;;;;;21.03;14.17;;;14.60;51.10;;;;;;5063157;28;20200;-84
2022/05/03 06:44:47;;;;;;;15.37;12.00;;;14.40;50.80;;;;;;5081749;28;20180;-83
2022/05/03 06:47:13;;;;;;;16.77;12.83;;;14.70;50.30;;;;;;5061857;28;20943;-84
2022/05/03 06:49:39;;;;;;;19.87;12.40;;;15.00;49.70;;;;;;5059203;28;20433;-84
2022/05/03 06:52:04;;;;;;;23.10;13.30;;;15.20;49.00;;;;;;5043443;28;20227;-85
2022/05/03 06:54:30;;;;;;;19.40;13.93;;;15.60;47.20;;;;;;5043246;28;20188;-84
2022/05/03 06:56:56;;;;;;;24.10;12.53;;;15.80;47.20;;;;;;5059156;28;20685;-84
2022/05/03 06:59:22;;;;;;;16.20;11.90;;;16.00;45.60;;;;;;5058992;28;20204;-85
2022/05/03 07:01:47;;;;;;;12.90;11.27;;;16.10;44.80;;;;;;5076024;28;20218;-83
2022/05/03 07:04:13;;;;;;;14.77;11.80;;;16.40;44.60;;;;;;5060553;28;20182;-84
2022/05/03 07:06:39;;;;;;;15.87;11.67;;;16.40;44.10;;;;;;5061661;28;20423;-83
2022/05/03 07:09:05;;;;;;;13.47;10.87;;;16.10;44.30;;;;;;5080534;28;20183;-86
2022/05/03 07:11:31;;;;;;;14.60;11.07;;;16.00;43.90;;;;;;5065207;28;20267;-83
2022/05/03 07:13:57;;;;;;;12.55;9.38;;;16.00;43.40;;;;;;5067538;28;20231;-84
2022/05/03 07:16:23;;;;;;;12.23;9.63;;;15.80;43.80;;;;;;5089140;28;20185;-87
2022/05/03 07:24:17;;;;;;;13.57;10.00;;;15.50;44.80;;;;;;5080385;28;20227;-85
2022/05/03 07:26:42;;;;;;;13.40;11.23;;;15.30;45.10;;;;;;5063358;28;20176;-85
2022/05/03 07:29:08;;;;;;;17.23;10.83;;;14.80;46.40;;;;;;5046660;28;20261;-83
2022/05/03 07:31:34;;;;;;;14.37;9.70;;;14.70;47.00;;;;;;5040444;28;20251;-84
2022/05/03 07:34:00;;;;;;;14.10;9.50;;;14.70;47.50;;;;;;5057933;28;20216;-84
2022/05/03 07:36:29;;;;;;;18.60;10.60;;;14.50;48.40;;;;;;5077883;28;20422;-84
2022/05/03 07:38:54;;;;;;;13.88;11.00;;;14.20;49.40;;;;;;5060419;28;20419;-83
2022/05/03 07:41:20;;;;;;;14.10;10.20;;;14.10;49.90;;;;;;5060146;28;20196;-84
2022/05/03 07:43:46;;;;;;;13.27;9.13;;;14.00;50.50;;;;;;5060294;28;20181;-83
2022/05/03 07:46:11;;;;;;;14.23;10.33;;;13.90;51.60;;;;;;5060607;28;20176;-84
2022/05/03 07:48:37;;;;;;;13.43;9.23;;;13.80;52.10;;;;;;5059170;28;20176;-83
2022/05/03 07:51:03;;;;;;;13.90;9.80;;;13.90;51.70;;;;;;5060696;28;20201;-83
2022/05/03 07:53:30;;;;;;;12.77;9.63;;;14.00;51.60;;;;;;5061109;28;20295;-83
2022/05/03 07:55:56;;;;;;;15.40;11.25;;;14.20;52.10;;;;;;5061877;28;20176;-83
2022/05/03 07:58:23;;;;;;;18.53;10.80;;;14.30;51.50;;;;;;5068687;28;20206;-85
2022/05/03 08:00:49;;;;;;;12.75;9.63;;;14.30;52.30;;;;;;5084396;28;20561;-85
2022/05/03 08:03:16;;;;;;;11.45;9.63;;;14.20;52.90;;;;;;5075379;28;20193;-85
2022/05/03 08:05:43;;;;;;;15.05;11.05;;;14.40;51.40;;;;;;5056965;28;20553;-85
2022/05/03 08:08:09;;;;;;;12.35;9.25;;;14.50;51.40;;;;;;5057328;28;20192;-85
2022/05/03 08:10:34;;;;;;;13.67;10.50;;;14.50;51.40;;;;;;5054833;28;20208;-86
2022/05/03 08:13:00;;;;;;;14.17;10.77;;;14.50;51.60;;;;;;5056707;28;20455;-85
2022/05/03 08:15:26;;;;;;;13.40;9.60;;;14.60;51.80;;;;;;5074639;28;20657;-85
2022/05/03 08:17:51;;;;;;;15.13;10.17;;;14.70;52.00;;;;;;5057340;28;20179;-85
2022/05/03 08:20:17;;;;;;;14.30;10.73;;;14.50;52.00;;;;;;5061763;28;20223;-85
2022/05/03 08:22:43;;;;;;;14.13;8.87;;;14.50;52.10;;;;;;5056160;28;20275;-85
2022/05/03 08:25:10;;;;;;;17.73;11.40;;;14.40;52.70;;;;;;5074222;28;20235;-85
2022/05/03 08:27:38;;;;;;;12.43;10.40;;;14.50;52.20;;;;;;5062523;28;20263;-86
2022/05/03 08:30:06;;;;;;;15.88;10.18;;;14.60;52.20;;;;;;5064678;28;20185;-86
2022/05/03 08:32:32;;;;;;;14.45;9.63;;;14.60;52.40;;;;;;5068821;28;20604;-86
2022/05/03 08:34:58;;;;;;;17.05;10.00;;;14.60;52.60;;;;;;5057102;28;20168;-85
2022/05/03 08:42:53;;;;;;;11.93;10.57;;;14.90;51.80;;;;;;5074848;28;20192;-86
2022/05/03 08:45:20;;;;;;;13.60;9.80;;;14.90;52.20;;;;;;5066231;28;20176;-84
2022/05/03 08:47:47;;;;;;;11.55;8.32;;;14.70;52.90;;;;;;5088826;28;20252;-84
2022/05/03 08:50:18;;;;;;;11.02;8.25;;;14.80;52.90;;;;;;5070849;28;20193;-84
2022/05/03 08:52:56;;;;;;;10.52;8.32;;;14.80;53.00;;;;;;5063863;28;20204;-85
2022/05/03 08:55:23;;;;;;;11.82;8.90;;;15.00;52.50;;;;;;5061546;28;20172;-85
2022/05/03 08:57:49;;;;;;;10.90;8.35;;;14.90;53.00;;;;;;5067399;28;20172;-86
2022/05/03 09:00:17;;;;;;;13.90;9.98;;;15.00;52.50;;;;;;5056537;28;20183;-86
2022/05/03 09:02:46;;;;;;;13.27;9.80;;;15.00;53.00;;;;;;5074649;28;20282;-85
2022/05/03 09:05:12;;;;;;;13.52;10.23;;;14.90;53.50;;;;;;5073288;28;20299;-85
2022/05/03 09:07:46;;;;;;;17.50;10.63;;;15.10;53.30;;;;;;5066446;28;20180;-84
2022/05/03 09:10:16;;;;;;;14.50;11.15;;;15.10;53.50;;;;;;5067410;28;20184;-85
2022/05/03 09:12:44;;;;;;;11.55;9.65;;;14.90;54.40;;;;;;5070271;28;20212;-84
2022/05/03 09:15:14;;;;;;;12.55;9.80;;;15.00;53.80;;;;;;5069595;28;20172;-84
2022/05/03 09:17:45;;;;;;;11.02;9.00;;;15.10;53.70;;;;;;5054489;28;20211;-84
2022/05/03 09:26:21;;;;;;;10.82;8.60;;;15.50;52.50;;;;;;5082474;28;20218;-85
2022/05/03 09:28:48;;;;;;;17.67;11.95;;;15.60;52.20;;;;;;5065396;28;20177;-84
2022/05/03 09:31:30;;;;;;;17.33;9.85;;;15.70;52.10;;;;;;5081955;28;20201;-84
2022/05/03 09:33:57;;;;;;;11.30;9.73;;;15.80;51.70;;;;;;5065121;28;20211;-84
2022/05/03 09:36:23;;;;;;;11.80;8.77;;;15.90;51.40;;;;;;5065455;28;20240;-84
2022/05/03 09:38:53;;;;;;;12.23;9.20;;;16.00;51.30;;;;;;5066120;28;20172;-86
2022/05/03 09:41:19;;;;;;;11.23;9.02;;;16.10;51.50;;;;;;5066327;28;20214;-85
2022/05/03 09:44:08;;;;;;;8.63;7.33;;;16.20;50.80;;;;;;5088739;28;20184;-85
2022/05/03 09:46:52;;;;;;;11.65;9.05;;;16.40;50.50;;;;;;5053584;28;20188;-85
2022/05/03 09:49:19;;;;;;;13.85;10.77;;;16.50;50.10;;;;;;5070486;28;20186;-85
2022/05/03 09:51:46;;;;;;;11.68;8.90;;;16.30;50.70;;;;;;5068760;28;20262;-85
2022/05/03 09:54:12;;;;;;;16.52;9.02;;;16.20;51.10;;;;;;5070510;28;20215;-85
2022/05/03 09:56:41;;;;;;;11.90;8.23;;;16.40;50.10;;;;;;5078174;28;20574;-85
2022/05/03 09:59:08;;;;;;;11.07;8.75;;;16.40;49.80;;;;;;5058657;28;20177;-85
2022/05/03 10:01:35;;;;;;;10.70;8.95;;;16.60;49.70;;;;;;5061262;28;20260;-86
2022/05/03 10:04:05;;;;;;;9.25;8.20;;;16.80;49.20;;;;;;5063273;28;20187;-85
2022/05/03 10:06:32;;;;;;;9.25;7.65;;;17.10;48.40;;;;;;5063330;28;20219;-85
2022/05/03 10:08:59;;;;;;;7.80;7.00;;;16.90;48.60;;;;;;5061677;28;20200;-86
2022/05/03 10:11:26;;;;;;;9.30;7.53;;;16.90;49.10;;;;;;5077872;28;20208;-85
2022/05/03 10:13:53;;;;;;;12.95;10.48;;;16.90;48.70;;;;;;5083537;28;20204;-87
2022/05/03 10:22:01;;;;;;;15.68;10.02;;;17.80;47.00;;;;;;5086333;28;20279;-86
2022/05/03 10:24:28;;;;;;;14.23;10.38;;;17.80;47.80;;;;;;5080471;28;20199;-86
2022/05/03 10:27:05;;;;;;;9.45;7.65;;;17.60;47.50;;;;;;5063348;28;20184;-86
2022/05/03 10:29:36;;;;;;;13.00;8.68;;;17.60;47.40;;;;;;5061888;28;20179;-86
2022/05/03 10:32:08;;;;;;;11.50;8.48;;;17.30;47.90;;;;;;5060753;28;20683;-86
2022/05/03 10:34:41;;;;;;;14.10;9.32;;;17.10;48.30;;;;;;5079510;28;20192;-86
2022/05/03 10:37:07;;;;;;;9.70;8.65;;;17.40;47.20;;;;;;5079185;28;20196;-85
2022/05/03 10:39:33;;;;;;;14.07;8.77;;;17.60;46.20;;;;;;5080813;28;20199;-84
2022/05/03 10:42:10;;;;;;;10.90;8.43;;;17.60;46.40;;;;;;5059945;28;20269;-86
2022/05/03 10:44:44;;;;;;;11.27;8.23;;;17.70;46.60;;;;;;5061005;28;20403;-85
2022/05/03 10:47:13;;;;;;;10.10;9.02;;;17.70;46.50;;;;;;5062972;28;20169;-86
2022/05/03 10:50:17;;;;;;;10.30;8.45;;;17.50;47.00;;;;;;5079980;28;20202;-86
2022/05/03 10:52:45;;;;;;;11.85;9.48;;;17.60;46.30;;;;;;4983772;28;20190;-85
2022/05/03 10:55:12;;;;;;;12.70;7.25;;;17.50;46.80;;;;;;5038444;28;20185;-86
2022/05/03 10:58:15;;;;;;;6.97;5.97;;;17.50;47.30;;;;;;5078326;28;20268;-86
2022/05/03 11:01:09;;;;;;;10.80;7.95;;;17.70;45.40;;;;;;5060521;28;20227;-86
2022/05/03 11:04:01;;;;;;;9.23;8.23;;;17.90;44.90;;;;;;5065788;28;20234;-84
2022/05/03 11:06:27;;;;;;;9.30;7.57;;;17.70;46.00;;;;;;5062649;28;20180;-86
2022/05/03 11:11:42;;;;;;;10.10;7.18;;;17.30;46.80;;;;;;5081065;28;20228;-85
2022/05/03 11:16:43;;;;;;;11.48;7.07;;;17.60;45.60;;;;;;5086247;28;20180;-85
2022/05/03 11:19:14;;;;;;;9.70;7.93;;;17.50;46.30;;;;;;5090021;28;20544;-84
2022/05/03 11:21:42;;;;;;;9.65;6.57;;;17.70;45.30;;;;;;5074449;28;20193;-85
2022/05/03 11:24:20;;;;;;;9.25;7.22;;;17.80;45.10;;;;;;5054702;28;20193;-85
2022/05/03 11:26:47;;;;;;;10.20;7.57;;;17.80;45.30;;;;;;5062794;28;20203;-86
2022/05/03 11:29:14;;;;;;;10.35;7.50;;;18.00;44.70;;;;;;5080864;28;20716;-85
2022/05/03 11:31:47;;;;;;;8.23;7.43;;;17.80;44.20;;;;;;5085660;28;20777;-84
2022/05/03 11:34:13;;;;;;;9.00;7.22;;;17.70;44.40;;;;;;5086217;28;20205;-85
2022/05/03 11:36:44;;;;;;;12.68;8.73;;;17.80;45.40;;;;;;5069369;28;20183;-85
2022/05/03 11:39:10;;;;;;;11.23;7.47;;;17.80;45.20;;;;;;5082256;28;20263;-85
2022/05/03 11:41:37;;;;;;;10.48;9.18;;;18.00;45.40;;;;;;5058086;28;20203;-86
2022/05/03 11:44:03;;;;;;;8.82;7.93;;;18.40;44.50;;;;;;5075285;28;20674;-86
2022/05/03 11:46:30;;;;;;;9.93;8.65;;;18.70;43.70;;;;;;5075650;28;20206;-85
2022/05/03 11:49:01;;;;;;;17.10;11.00;;;18.90;43.50;;;;;;5059315;28;20184;-86
2022/05/03 11:57:07;;;;;;;16.00;10.68;;;18.20;46.70;;;;;;5076212;28;20199;-85
2022/05/03 11:59:33;;;;;;;10.55;9.45;;;17.80;47.40;;;;;;5058054;28;20177;-85
2022/05/03 12:02:20;;;;;;;14.60;8.52;;;18.00;46.50;;;;;;5058933;28;20207;-85
2022/05/03 12:05:04;;;;;;;10.98;8.82;;;18.20;45.80;;;;;;5076334;28;20535;-85
2022/05/03 12:07:37;;;;;;;13.75;10.98;;;18.30;44.80;;;;;;5082380;28;20184;-85
2022/05/03 12:10:21;;;;;;;14.73;10.15;;;18.20;45.40;;;;;;5067045;28;20660;-84
2022/05/03 12:13:17;;;;;;;11.20;8.63;;;18.00;46.40;;;;;;5062393;28;20723;-86
2022/05/03 12:15:48;;;;;;;11.43;10.32;;;18.20;45.90;;;;;;5097021;28;20145;-85
2022/05/03 12:18:21;;;;;;;11.88;9.25;;;18.20;46.50;;;;;;5072840;28;20192;-85
2022/05/03 12:21:14;;;;;;;11.45;9.57;;;18.40;45.30;;;;;;5061982;28;20223;-86
2022/05/03 12:23:43;;;;;;;14.60;12.13;;;18.60;44.50;;;;;;5031081;28;20193;-85
2022/05/03 12:26:15;;;;;;;14.00;10.88;;;18.70;44.30;;;;;;5036689;28;20169;-85
2022/05/03 12:28:54;;;;;;;17.25;12.82;;;18.70;45.20;;;;;;5054499;28;20180;-86
2022/05/03 12:31:23;;;;;;;16.50;13.90;;;18.50;46.40;;;;;;5052775;28;20222;-85
2022/05/03 12:33:59;;;;;;;16.13;14.05;;;18.50;47.70;;;;;;5074131;28;20208;-85
2022/05/03 12:36:49;;;;;;;20.13;16.48;;;18.50;48.70;;;;;;5056646;28;20180;-86
2022/05/03 12:39:17;;;;;;;17.50;15.27;;;18.30;49.60;;;;;;5074863;28;20279;-86
2022/05/03 12:41:46;;;;;;;21.65;16.58;;;18.20;50.10;;;;;;5076484;28;20196;-86
2022/05/03 12:44:14;;;;;;;19.17;17.02;;;17.90;51.70;;;;;;5085188;28;20177;-86
2022/05/03 12:46:41;;;;;;;19.80;15.43;;;18.10;52.20;;;;;;5069257;28;20188;-86
2022/05/03 12:49:12;;;;;;;18.42;15.70;;;18.30;52.10;;;;;;5071287;28;20202;-86
2022/05/03 12:51:46;;;;;;;17.52;15.50;;;18.10;52.10;;;;;;5071245;28;20200;-86
2022/05/03 12:54:13;;;;;;;20.20;16.92;;;18.10;52.50;;;;;;5069083;28;20200;-86
2022/05/03 12:59:32;;;;;;;23.63;19.08;;;17.80;52.50;;;;;;5049204;28;20176;-86
2022/05/03 13:01:58;;;;;;;19.97;17.87;;;17.90;53.20;;;;;;5039949;28;20453;-86
2022/05/03 13:04:30;;;;;;;23.10;19.23;;;18.10;53.40;;;;;;5038524;28;20418;-86
2022/05/03 13:06:58;;;;;;;21.42;19.13;;;17.80;54.10;;;;;;5043562;28;20844;-86
2022/05/03 13:09:24;;;;;;;24.73;18.77;;;17.70;54.50;;;;;;5071109;28;20211;-86
2022/05/03 13:11:52;;;;;;;19.80;17.70;;;17.60;54.30;;;;;;5098882;28;20197;-86
2022/05/03 13:14:18;;;;;;;21.50;17.40;;;17.60;54.30;;;;;;5083723;28;20251;-86
2022/05/03 13:16:45;;;;;;;19.77;17.38;;;17.70;54.20;;;;;;5101051;28;20753;-86
2022/05/03 13:19:12;;;;;;;18.92;16.83;;;17.90;53.10;;;;;;5081515;28;20190;-86
2022/05/03 13:21:43;;;;;;;19.05;16.75;;;18.10;52.70;;;;;;5072010;28;20825;-85
2022/05/03 13:24:10;;;;;;;19.40;17.20;;;17.80;53.20;;;;;;5062420;28;20204;-86
2022/05/03 13:26:38;;;;;;;19.10;16.90;;;17.90;52.70;;;;;;5066662;28;20191;-85
2022/05/03 13:29:10;;;;;;;19.58;17.58;;;17.70;53.40;;;;;;5064056;28;20180;-86
2022/05/03 13:31:36;;;;;;;20.13;17.95;;;17.80;53.20;;;;;;5060063;28;20254;-86
2022/05/03 13:34:02;;;;;;;25.40;18.83;;;17.80;54.40;;;;;;5060030;28;20215;-86
2022/05/03 13:41:57;;;;;;;23.35;18.80;;;17.80;54.20;;;;;;5064627;28;20226;-86
2022/05/03 13:44:25;;;;;;;22.20;18.60;;;18.00;53.60;;;;;;5062160;28;20184;-86
2022/05/03 13:46:52;;;;;;;19.25;17.25;;;18.30;53.70;;;;;;5045599;28;20204;-86
2022/05/03 13:49:19;;;;;;;18.35;16.52;;;18.30;53.60;;;;;;5065066;28;20232;-87